Alapaha, Georgia
Current Conditions -  °F | °C
As of 6:30 PM on Saturday 25 Oct 2014 (Local Time) from KTMA Reporting Station
Clear Clear  
Wind Chill: 73°   Ceiling: Unl
Heat Index: 73°   Visibility: 10mi
Dew Point: 41°   Wind: 5mph
Humidity: 31%   Direction: 330°NNW
Pressure: 29.98"   Gusts: NA
Location:  31.39°N, 83.22°W
Report Text: KTMA 252230Z AUTO 33004KT 10SM CLR 23/05 A2998 RMK AO2 T02270048
Loading
Personal Weather Stations






























Interactive Weather Map New forecast layout! Learn more

10-Day Weather Forecast

Advertisements
Track Severe Weather on mobile